createdAt,value
2018-09-26T00:02:06.783Z,8.10
2018-09-26T00:04:39.307Z,8.10
2018-09-26T00:07:07.959Z,8.10
2018-09-26T00:09:36.609Z,8.20
2018-09-26T00:12:05.284Z,8.20
2018-09-26T00:14:33.951Z,8.20
2018-09-26T00:17:02.610Z,8.10
2018-09-26T00:19:31.441Z,8.00
2018-09-26T00:22:00.729Z,8.00
2018-09-26T00:24:29.399Z,7.90
2018-09-26T00:26:58.059Z,7.90
2018-09-26T00:29:26.725Z,7.90
2018-09-26T00:31:55.387Z,7.80
2018-09-26T00:34:24.067Z,7.80
2018-09-26T00:36:52.747Z,7.80
2018-09-26T00:39:21.391Z,7.80
2018-09-26T00:41:50.056Z,7.80
2018-09-26T00:44:18.717Z,7.80
2018-09-26T00:46:47.377Z,7.90
2018-09-26T00:49:16.065Z,7.90
2018-09-26T00:51:44.702Z,8.00
2018-09-26T00:54:13.345Z,8.00
2018-09-26T00:56:42.004Z,8.00
2018-09-26T00:59:10.667Z,7.80
2018-09-26T01:01:39.367Z,7.80
2018-09-26T01:04:08.022Z,7.90
2018-09-26T01:06:36.668Z,7.80
2018-09-26T01:09:07.470Z,7.80
2018-09-26T01:11:36.434Z,7.80
2018-09-26T01:14:05.082Z,7.80
2018-09-26T01:16:33.794Z,7.70
2018-09-26T01:19:02.436Z,7.80
2018-09-26T01:21:31.114Z,7.80
2018-09-26T01:23:59.748Z,7.80
2018-09-26T01:26:28.391Z,7.80
2018-09-26T01:28:57.050Z,7.80
2018-09-26T01:31:25.776Z,7.80
2018-09-26T01:33:54.427Z,7.80
2018-09-26T01:36:23.044Z,7.70
2018-09-26T01:38:51.703Z,7.70
2018-09-26T01:41:20.430Z,7.70
2018-09-26T01:43:49.042Z,7.70
2018-09-26T01:46:17.691Z,7.70
2018-09-26T01:48:46.358Z,7.70
2018-09-26T01:51:15.030Z,7.60
2018-09-26T01:53:43.674Z,7.60
2018-09-26T01:56:12.321Z,7.60
2018-09-26T01:58:40.975Z,7.60
2018-09-26T02:01:09.623Z,7.60
2018-09-26T02:03:38.285Z,7.60
2018-09-26T02:06:07.477Z,7.60
2018-09-26T02:08:36.145Z,7.50
2018-09-26T02:11:04.785Z,7.50
2018-09-26T02:13:33.611Z,7.50
2018-09-26T02:16:02.251Z,7.50
2018-09-26T02:18:30.900Z,7.40
2018-09-26T02:20:59.563Z,7.40
2018-09-26T02:23:28.245Z,7.40
2018-09-26T02:25:56.872Z,7.40
2018-09-26T02:28:25.515Z,7.40
2018-09-26T02:30:54.270Z,7.40
2018-09-26T02:33:22.911Z,7.40
2018-09-26T02:35:51.536Z,7.40
2018-09-26T02:38:20.200Z,7.30
2018-09-26T02:40:48.850Z,7.30
2018-09-26T02:43:17.801Z,7.30
2018-09-26T02:45:46.466Z,7.30
2018-09-26T02:48:20.524Z,7.30
2018-09-26T02:50:49.161Z,7.30
2018-09-26T02:53:17.850Z,7.30
2018-09-26T02:55:46.646Z,7.30
2018-09-26T02:58:15.158Z,7.30
2018-09-26T03:00:43.806Z,7.20
2018-09-26T03:03:12.440Z,7.10
2018-09-26T03:05:41.097Z,7.20
2018-09-26T03:08:09.758Z,7.20
2018-09-26T03:10:38.423Z,7.20
2018-09-26T03:13:07.252Z,7.20
2018-09-26T03:15:35.905Z,7.20
2018-09-26T03:18:04.551Z,7.20
2018-09-26T03:20:33.199Z,7.20
2018-09-26T03:23:01.858Z,7.20
2018-09-26T03:25:30.513Z,7.20
2018-09-26T03:27:59.146Z,7.20
2018-09-26T03:30:27.808Z,7.20
2018-09-26T03:32:56.461Z,7.10
2018-09-26T03:35:25.104Z,7.10
2018-09-26T03:37:53.880Z,7.10
2018-09-26T03:40:22.546Z,7.00
2018-09-26T03:42:51.187Z,7.00
2018-09-26T03:45:19.850Z,7.00
2018-09-26T03:47:48.508Z,7.00
2018-09-26T03:50:17.176Z,7.10
2018-09-26T03:52:45.829Z,7.20
2018-09-26T03:55:14.481Z,7.20
2018-09-26T03:57:43.141Z,7.20
2018-09-26T04:00:12.026Z,7.00
2018-09-26T04:02:40.812Z,7.00
2018-09-26T04:05:09.622Z,7.10
2018-09-26T04:07:38.432Z,7.10
2018-09-26T04:10:07.096Z,7.00
2018-09-26T04:12:35.923Z,7.10
2018-09-26T04:15:04.525Z,7.10
2018-09-26T04:17:33.159Z,7.10
2018-09-26T04:20:01.797Z,7.10
2018-09-26T04:22:30.482Z,7.10
2018-09-26T04:24:59.147Z,7.10
2018-09-26T04:27:28.036Z,7.00
2018-09-26T04:29:56.513Z,7.00
2018-09-26T04:32:25.219Z,7.00
2018-09-26T04:34:53.977Z,7.00
2018-09-26T04:37:22.643Z,7.00
2018-09-26T04:39:51.390Z,7.00
2018-09-26T04:42:20.120Z,7.00
2018-09-26T04:44:48.857Z,7.00
2018-09-26T04:47:17.478Z,7.00
2018-09-26T04:49:46.160Z,7.00
2018-09-26T04:52:14.808Z,6.90
2018-09-26T04:54:43.469Z,7.00
2018-09-26T04:57:12.096Z,7.00
2018-09-26T04:59:40.748Z,7.00
2018-09-26T05:02:09.411Z,7.00
2018-09-26T05:04:38.160Z,7.00
2018-09-26T05:07:06.811Z,6.90
2018-09-26T05:09:35.470Z,7.00
2018-09-26T05:12:04.106Z,7.00
2018-09-26T05:14:32.927Z,7.00
2018-09-26T05:17:01.651Z,7.00
2018-09-26T05:19:30.294Z,6.90
2018-09-26T05:21:58.944Z,6.90
2018-09-26T05:24:27.628Z,7.00
2018-09-26T05:26:59.225Z,7.00
2018-09-26T05:29:28.559Z,7.00
2018-09-26T05:31:57.220Z,7.00
2018-09-26T05:34:26.018Z,7.00
2018-09-26T05:36:54.703Z,6.90
2018-09-26T05:39:23.382Z,6.90
2018-09-26T05:41:52.145Z,7.00
2018-09-26T05:44:20.719Z,7.00
2018-09-26T05:46:49.370Z,7.00
2018-09-26T05:49:18.046Z,7.00
2018-09-26T05:51:46.713Z,7.00
2018-09-26T05:54:15.381Z,7.00
2018-09-26T05:56:44.030Z,7.00
2018-09-26T05:59:12.701Z,7.10
2018-09-26T06:01:41.384Z,7.10
2018-09-26T06:04:10.037Z,7.10
2018-09-26T06:06:38.751Z,7.20
2018-09-26T06:09:09.975Z,7.20
2018-09-26T06:11:38.661Z,7.20
2018-09-26T06:14:08.365Z,7.20
2018-09-26T06:16:37.111Z,7.20
2018-09-26T06:19:06.017Z,7.30
2018-09-26T06:21:34.981Z,7.30
2018-09-26T06:24:03.647Z,7.40
2018-09-26T06:26:32.421Z,7.40
2018-09-26T06:29:01.094Z,7.40
2018-09-26T06:31:29.749Z,7.40
2018-09-26T06:33:58.401Z,7.40
2018-09-26T06:36:27.839Z,7.50
2018-09-26T06:38:56.524Z,7.40
2018-09-26T06:41:25.177Z,7.50
2018-09-26T06:43:53.853Z,7.40
2018-09-26T06:46:22.539Z,7.50
2018-09-26T06:48:51.182Z,7.60
2018-09-26T06:51:19.835Z,7.60
2018-09-26T06:53:48.498Z,7.70
2018-09-26T06:56:17.177Z,7.70
2018-09-26T06:58:45.865Z,7.70
2018-09-26T07:01:14.554Z,7.70
2018-09-26T07:03:43.261Z,7.80
2018-09-26T07:06:11.940Z,7.80
2018-09-26T07:08:40.648Z,7.80
2018-09-26T07:11:09.328Z,7.80
2018-09-26T07:13:38.009Z,7.90
2018-09-26T07:16:06.634Z,7.90
2018-09-26T07:18:35.292Z,7.90
2018-09-26T07:21:03.952Z,8.00
2018-09-26T07:23:32.632Z,8.00
2018-09-26T07:26:03.757Z,8.00
2018-09-26T07:28:33.774Z,8.00
2018-09-26T07:31:02.490Z,8.00
2018-09-26T07:33:31.164Z,8.00
2018-09-26T07:35:59.947Z,8.00
2018-09-26T07:38:28.663Z,8.10
2018-09-26T07:40:57.309Z,8.10
2018-09-26T07:43:26.315Z,8.20
2018-09-26T07:45:55.086Z,8.20
2018-09-26T07:48:23.684Z,8.30
2018-09-26T07:50:52.403Z,8.30
2018-09-26T07:53:21.085Z,8.30
2018-09-26T07:55:49.951Z,8.40
2018-09-26T07:58:18.622Z,8.40
2018-09-26T08:00:47.438Z,8.50
2018-09-26T08:03:16.131Z,8.60
2018-09-26T08:05:45.075Z,8.70
2018-09-26T08:08:14.040Z,8.80
2018-09-26T08:10:42.713Z,8.80
2018-09-26T08:13:11.391Z,8.90
2018-09-26T08:15:40.015Z,9.00
2018-09-26T08:18:08.778Z,9.10
2018-09-26T08:20:37.426Z,9.20
2018-09-26T08:23:06.302Z,9.30
2018-09-26T08:25:34.967Z,9.50
2018-09-26T08:28:03.737Z,9.50
2018-09-26T08:30:32.575Z,9.60
2018-09-26T08:33:01.288Z,9.70
2018-09-26T08:35:30.054Z,9.70
2018-09-26T08:37:58.735Z,9.80
2018-09-26T08:40:27.433Z,9.80
2018-09-26T08:42:56.158Z,10.00
2018-09-26T08:45:24.898Z,10.10
2018-09-26T08:47:53.653Z,10.20
2018-09-26T08:50:22.395Z,10.30
2018-09-26T08:52:51.113Z,10.30
2018-09-26T08:55:19.896Z,10.30
2018-09-26T08:57:48.714Z,10.30
2018-09-26T09:00:21.708Z,10.30
2018-09-26T09:02:50.419Z,10.30
2018-09-26T09:05:19.143Z,10.30
2018-09-26T09:07:47.892Z,10.40
2018-09-26T09:10:16.651Z,10.40
2018-09-26T09:12:45.468Z,10.50
2018-09-26T09:15:14.411Z,10.50
2018-09-26T09:17:43.496Z,10.50
2018-09-26T09:20:12.442Z,10.50
2018-09-26T09:22:41.602Z,10.50
2018-09-26T09:25:10.352Z,10.50
2018-09-26T09:27:39.159Z,10.60
2018-09-26T09:30:07.932Z,10.60
2018-09-26T09:32:36.781Z,10.70
2018-09-26T09:35:05.546Z,10.70
2018-09-26T09:37:34.258Z,10.80
2018-09-26T09:40:03.100Z,10.90
2018-09-26T09:42:31.822Z,11.10
2018-09-26T09:45:00.705Z,11.20
2018-09-26T09:47:29.361Z,11.30
2018-09-26T09:49:58.114Z,11.50
2018-09-26T09:52:26.811Z,11.60
2018-09-26T09:54:55.469Z,11.90
2018-09-26T09:57:24.237Z,12.00
2018-09-26T09:59:52.923Z,12.10
2018-09-26T10:02:21.743Z,12.10
2018-09-26T10:04:50.373Z,12.10
2018-09-26T10:07:19.185Z,12.10
2018-09-26T10:09:47.893Z,12.20
2018-09-26T10:12:16.606Z,12.20
2018-09-26T10:14:45.526Z,12.30
2018-09-26T10:17:14.237Z,12.40
2018-09-26T10:19:43.022Z,12.50
2018-09-26T10:22:11.691Z,12.60
2018-09-26T10:24:40.388Z,12.90
2018-09-26T10:27:09.056Z,13.10
2018-09-26T10:29:37.770Z,13.20
2018-09-26T10:32:06.500Z,13.30
2018-09-26T10:34:35.237Z,13.50
2018-09-26T10:37:03.920Z,13.70
2018-09-26T10:39:32.588Z,13.60
2018-09-26T10:42:01.258Z,13.70
2018-09-26T10:44:30.102Z,13.90
2018-09-26T10:46:58.766Z,14.00
2018-09-26T10:49:27.412Z,14.30
2018-09-26T10:51:56.184Z,14.30
2018-09-26T10:54:24.838Z,14.30
2018-09-26T10:56:53.546Z,14.20
2018-09-26T10:59:22.245Z,14.00
2018-09-26T11:01:51.013Z,14.00
2018-09-26T11:04:19.709Z,14.00
2018-09-26T11:06:48.300Z,14.20
2018-09-26T11:09:16.958Z,14.30
2018-09-26T11:11:45.730Z,14.50
2018-09-26T11:14:14.475Z,14.70
2018-09-26T11:16:43.093Z,14.80
2018-09-26T11:19:11.757Z,15.30
2018-09-26T11:21:40.405Z,15.90
2018-09-26T11:24:09.091Z,16.00
2018-09-26T11:26:37.855Z,15.90
2018-09-26T11:29:06.463Z,15.60
2018-09-26T11:31:35.133Z,15.00
2018-09-26T11:34:03.839Z,14.80
2018-09-26T11:36:32.509Z,14.60
2018-09-26T11:39:01.207Z,14.50
2018-09-26T11:41:29.879Z,14.40
2018-09-26T11:43:58.559Z,14.30
2018-09-26T11:46:27.214Z,14.20
2018-09-26T11:48:55.897Z,14.10
2018-09-26T11:51:24.564Z,14.00
2018-09-26T11:53:53.241Z,14.00
2018-09-26T11:56:21.900Z,14.00
2018-09-26T11:58:50.578Z,14.00
2018-09-26T12:01:19.252Z,14.00
2018-09-26T12:03:47.982Z,14.00
2018-09-26T12:06:16.705Z,14.00
2018-09-26T12:08:45.428Z,14.10
2018-09-26T12:11:14.081Z,14.10
2018-09-26T12:13:42.924Z,14.20
2018-09-26T12:16:11.582Z,14.20
2018-09-26T12:18:40.260Z,14.20
2018-09-26T12:21:09.102Z,14.20
2018-09-26T12:23:37.801Z,14.20
2018-09-26T12:26:06.459Z,14.20
2018-09-26T12:28:35.128Z,14.20
2018-09-26T12:31:03.868Z,14.20
2018-09-26T12:33:32.596Z,14.20
2018-09-26T12:36:01.264Z,14.20
2018-09-26T12:38:29.925Z,14.20
2018-09-26T12:40:58.703Z,14.20
2018-09-26T12:43:27.366Z,14.30
2018-09-26T12:45:56.093Z,14.30
2018-09-26T12:48:24.864Z,14.20
2018-09-26T12:50:53.529Z,14.30
2018-09-26T12:53:22.192Z,14.30
2018-09-26T12:55:50.883Z,14.40
2018-09-26T12:58:19.576Z,14.30
2018-09-26T13:00:48.387Z,14.30
2018-09-26T13:03:17.193Z,14.40
2018-09-26T13:05:45.900Z,14.40
2018-09-26T13:08:14.814Z,14.40
2018-09-26T13:10:43.446Z,14.50
2018-09-26T13:13:12.236Z,14.40
2018-09-26T13:15:40.973Z,14.50
2018-09-26T13:18:09.684Z,14.50
2018-09-26T13:20:38.410Z,14.60
2018-09-26T13:23:08.119Z,14.60
2018-09-26T13:25:36.932Z,14.60
2018-09-26T13:28:05.605Z,14.60
2018-09-26T13:30:34.337Z,14.50
2018-09-26T13:33:04.151Z,14.50
2018-09-26T13:35:33.281Z,14.50
2018-09-26T13:38:01.941Z,14.50
2018-09-26T13:40:30.946Z,14.50
2018-09-26T13:42:59.639Z,14.50
2018-09-26T13:45:28.427Z,14.60
2018-09-26T13:47:57.119Z,14.60
2018-09-26T13:50:25.942Z,14.70
2018-09-26T13:52:54.737Z,14.60
2018-09-26T13:55:23.443Z,14.60
2018-09-26T13:57:52.177Z,14.60
2018-09-26T14:00:20.937Z,14.60
2018-09-26T14:02:49.556Z,14.60
2018-09-26T14:05:18.243Z,14.70
2018-09-26T14:07:47.007Z,14.80
2018-09-26T14:10:15.744Z,14.80
2018-09-26T14:12:44.591Z,14.80
2018-09-26T14:15:13.567Z,14.80
2018-09-26T14:17:42.401Z,14.80
2018-09-26T14:20:11.314Z,14.80
2018-09-26T14:22:40.047Z,14.80
2018-09-26T14:25:08.746Z,14.80
2018-09-26T14:27:37.463Z,14.90
2018-09-26T14:30:06.230Z,14.90
2018-09-26T14:32:34.889Z,14.90
2018-09-26T14:35:03.606Z,14.90
2018-09-26T14:37:32.320Z,14.90
2018-09-26T14:40:01.048Z,15.00
2018-09-26T14:42:29.742Z,15.00
2018-09-26T14:44:58.408Z,15.00
2018-09-26T14:47:27.132Z,15.00
2018-09-26T14:49:55.876Z,15.00
2018-09-26T14:52:24.544Z,15.00
2018-09-26T14:54:53.230Z,15.10
2018-09-26T14:57:22.056Z,15.00
2018-09-26T14:59:50.672Z,15.00
2018-09-26T15:02:19.415Z,15.00
2018-09-26T15:04:48.052Z,15.00
2018-09-26T15:07:16.726Z,15.00
2018-09-26T15:09:45.604Z,14.90
2018-09-26T15:12:14.299Z,15.00
2018-09-26T15:14:43.157Z,14.90
2018-09-26T15:17:11.934Z,14.90
2018-09-26T15:19:40.679Z,14.90
2018-09-26T15:22:09.484Z,14.90
2018-09-26T15:24:38.116Z,14.90
2018-09-26T15:27:06.904Z,14.90
2018-09-26T15:29:35.633Z,14.90
2018-09-26T15:32:04.348Z,14.90
2018-09-26T15:34:33.062Z,14.90
2018-09-26T15:37:01.808Z,14.80
2018-09-26T15:39:30.463Z,14.90
2018-09-26T15:41:59.176Z,14.80
2018-09-26T15:44:27.928Z,14.80
2018-09-26T15:46:56.594Z,14.80
2018-09-26T15:49:25.244Z,14.90
2018-09-26T15:51:53.916Z,14.90
2018-09-26T15:54:22.746Z,15.00
2018-09-26T15:56:51.374Z,15.00
2018-09-26T15:59:20.173Z,14.90
2018-09-26T16:01:48.829Z,14.90
2018-09-26T16:04:17.658Z,14.90
2018-09-26T16:06:46.323Z,14.90
2018-09-26T16:09:15.188Z,14.90
2018-09-26T16:11:43.972Z,14.90
2018-09-26T16:14:12.956Z,14.80
2018-09-26T16:16:41.793Z,14.80
2018-09-26T16:19:10.638Z,14.80
2018-09-26T16:21:39.309Z,14.80
2018-09-26T16:24:08.106Z,14.80
2018-09-26T16:26:36.741Z,14.80
2018-09-26T16:29:05.588Z,14.80
2018-09-26T16:31:34.305Z,14.80
2018-09-26T16:34:02.995Z,14.80
2018-09-26T16:36:31.668Z,14.80
2018-09-26T16:39:00.382Z,14.70
2018-09-26T16:41:29.066Z,14.70
2018-09-26T16:43:57.889Z,14.70
2018-09-26T16:46:26.563Z,14.70
2018-09-26T16:48:55.255Z,14.70
2018-09-26T16:51:23.964Z,14.70
2018-09-26T16:53:52.650Z,14.70
2018-09-26T16:56:21.458Z,14.70
2018-09-26T16:58:50.088Z,14.70
2018-09-26T17:01:18.891Z,14.60
2018-09-26T17:03:47.579Z,14.60
2018-09-26T17:06:16.332Z,14.60
2018-09-26T17:08:45.014Z,14.60
2018-09-26T17:11:13.749Z,14.60
2018-09-26T17:13:42.903Z,14.60
2018-09-26T17:16:11.714Z,14.60
2018-09-26T17:18:40.429Z,14.60
2018-09-26T17:21:09.223Z,14.60
2018-09-26T17:23:38.057Z,14.50
2018-09-26T17:26:06.819Z,14.50
2018-09-26T17:28:35.539Z,14.50
2018-09-26T17:31:04.187Z,14.50
2018-09-26T17:33:32.844Z,14.50
2018-09-26T17:36:01.531Z,14.50
2018-09-26T17:38:30.305Z,14.50
2018-09-26T17:40:59.044Z,14.50
2018-09-26T17:43:27.811Z,14.60
2018-09-26T17:45:56.501Z,14.50
2018-09-26T17:48:25.220Z,14.50
2018-09-26T17:50:53.873Z,14.50
2018-09-26T17:53:22.538Z,14.50
2018-09-26T17:55:51.245Z,14.60
2018-09-26T17:58:20.022Z,14.60
2018-09-26T18:00:48.667Z,14.60
2018-09-26T18:03:17.377Z,14.60
2018-09-26T18:05:46.073Z,14.60
2018-09-26T18:08:14.730Z,14.60
2018-09-26T18:10:43.455Z,14.60
2018-09-26T18:13:12.137Z,14.60
2018-09-26T18:15:40.811Z,14.60
2018-09-26T18:18:09.489Z,14.60
2018-09-26T18:20:38.144Z,14.60
2018-09-26T18:23:06.897Z,14.70
2018-09-26T18:25:35.578Z,14.70
2018-09-26T18:28:04.289Z,14.70
2018-09-26T18:30:32.982Z,14.70
2018-09-26T18:33:01.709Z,14.70
2018-09-26T18:35:30.418Z,14.70
2018-09-26T18:37:59.083Z,14.70
2018-09-26T18:40:27.984Z,14.70
2018-09-26T18:42:56.801Z,14.70
2018-09-26T18:45:25.660Z,14.70
2018-09-26T18:47:54.584Z,14.70
2018-09-26T18:50:23.288Z,14.70
2018-09-26T18:52:52.022Z,14.70
2018-09-26T18:55:20.701Z,14.70
2018-09-26T18:57:49.589Z,14.70
2018-09-26T19:00:18.338Z,14.70
2018-09-26T19:02:47.012Z,14.70
2018-09-26T19:05:15.707Z,14.70
2018-09-26T19:07:44.427Z,14.70
2018-09-26T19:10:13.069Z,14.70
2018-09-26T19:12:41.799Z,14.70
2018-09-26T19:15:10.488Z,14.70
2018-09-26T19:17:39.128Z,14.70
2018-09-26T19:20:07.812Z,14.70
2018-09-26T19:22:36.494Z,14.70
2018-09-26T19:25:05.155Z,14.70
2018-09-26T19:27:33.902Z,14.70
2018-09-26T19:30:02.491Z,14.70
2018-09-26T19:32:31.211Z,14.70
2018-09-26T19:34:59.847Z,14.70
2018-09-26T19:37:28.566Z,14.70
2018-09-26T19:39:57.245Z,14.70
2018-09-26T19:42:25.911Z,14.70
2018-09-26T19:44:54.588Z,14.70
2018-09-26T19:47:23.219Z,14.70
2018-09-26T19:49:51.902Z,14.70
2018-09-26T19:52:20.600Z,14.70
2018-09-26T19:54:49.252Z,14.70
2018-09-26T19:57:17.932Z,14.70
2018-09-26T19:59:46.693Z,14.70
2018-09-26T20:02:15.598Z,14.70
2018-09-26T20:04:44.263Z,14.60
2018-09-26T20:07:12.980Z,14.60
2018-09-26T20:09:41.723Z,14.60
2018-09-26T20:12:10.388Z,14.60
2018-09-26T20:14:39.064Z,14.60
2018-09-26T20:17:07.894Z,14.60
2018-09-26T20:19:36.542Z,14.60
2018-09-26T20:22:06.656Z,14.50
2018-09-26T20:24:35.318Z,14.50
2018-09-26T20:27:04.081Z,14.60
2018-09-26T20:29:32.810Z,14.60
2018-09-26T20:32:01.367Z,14.60
2018-09-26T20:34:30.022Z,14.60
2018-09-26T20:36:58.726Z,14.60
2018-09-26T20:39:27.358Z,14.60
2018-09-26T20:41:56.064Z,14.60
2018-09-26T20:44:24.738Z,14.60
2018-09-26T20:46:53.364Z,14.60
2018-09-26T20:49:22.060Z,14.60
2018-09-26T20:51:50.913Z,14.60
2018-09-26T20:54:19.562Z,14.60
2018-09-26T20:56:48.312Z,14.60
2018-09-26T20:59:17.131Z,14.60
2018-09-26T21:01:45.934Z,14.60
2018-09-26T21:04:14.793Z,14.70
2018-09-26T21:06:43.598Z,14.60
2018-09-26T21:09:12.463Z,14.60
2018-09-26T21:11:41.157Z,14.60
2018-09-26T21:14:09.865Z,14.60
2018-09-26T21:16:38.591Z,14.60
2018-09-26T21:19:07.271Z,14.60
2018-09-26T21:21:35.954Z,14.50
2018-09-26T21:24:04.616Z,14.50
2018-09-26T21:26:33.323Z,14.50
2018-09-26T21:29:01.984Z,14.50
2018-09-26T21:31:30.828Z,14.50
2018-09-26T21:33:59.650Z,14.60
2018-09-26T21:36:28.458Z,14.50
2018-09-26T21:38:57.194Z,14.50
2018-09-26T21:41:25.929Z,14.50
2018-09-26T21:43:54.764Z,14.50
2018-09-26T21:46:23.572Z,14.50
2018-09-26T21:48:52.456Z,14.50
2018-09-26T21:51:21.281Z,14.50
2018-09-26T21:53:50.008Z,14.50
2018-09-26T21:56:18.840Z,14.50
2018-09-26T21:58:47.649Z,14.50
2018-09-26T22:01:17.438Z,14.50
2018-09-26T22:03:46.318Z,14.50
2018-09-26T22:06:15.041Z,14.50
2018-09-26T22:08:43.792Z,14.50
2018-09-26T22:11:12.446Z,14.50
2018-09-26T22:13:41.121Z,14.50
2018-09-26T22:16:09.809Z,14.50
2018-09-26T22:18:38.476Z,14.60
2018-09-26T22:21:07.490Z,14.60
2018-09-26T22:23:36.458Z,14.60
2018-09-26T22:26:05.258Z,14.70
2018-09-26T22:28:34.148Z,14.70
2018-09-26T22:31:02.888Z,14.70
2018-09-26T22:33:31.607Z,14.80
2018-09-26T22:36:00.299Z,14.70
2018-09-26T22:38:28.977Z,14.80
2018-09-26T22:40:57.679Z,14.80
2018-09-26T22:43:26.361Z,14.80
2018-09-26T22:45:55.010Z,14.80
2018-09-26T22:48:23.700Z,14.80
2018-09-26T22:50:52.362Z,14.80
2018-09-26T22:53:21.236Z,14.90
2018-09-26T22:55:49.907Z,14.90
2018-09-26T22:58:18.570Z,14.80
2018-09-26T23:00:47.290Z,14.80
2018-09-26T23:03:15.958Z,14.80
2018-09-26T23:05:44.688Z,14.90
2018-09-26T23:08:13.603Z,15.00
2018-09-26T23:10:42.268Z,14.90
2018-09-26T23:13:10.940Z,14.90
2018-09-26T23:15:39.576Z,15.00
2018-09-26T23:18:08.284Z,15.00
2018-09-26T23:23:12.050Z,15.00
2018-09-26T23:25:40.736Z,15.00
2018-09-26T23:28:09.445Z,15.00
2018-09-26T23:30:38.153Z,14.90
2018-09-26T23:33:06.926Z,14.90
2018-09-26T23:35:35.571Z,14.90
2018-09-26T23:38:04.237Z,14.90
2018-09-26T23:40:33.003Z,14.90
2018-09-26T23:43:01.670Z,14.90
2018-09-26T23:45:30.370Z,14.90
2018-09-26T23:47:59.053Z,14.90
2018-09-26T23:50:27.736Z,14.90
2018-09-26T23:52:56.410Z,14.80
2018-09-26T23:55:25.180Z,14.80
2018-09-26T23:57:53.855Z,14.80
